Time;durP1;ratioP1;P1;durP2;ratioP2;P2;SDS_P1;SDS_P2;PMS_P1;PMS_P2;Temp;Humidity;BMP_temperature;BMP_pressure;BME280_temperature;BME280_humidity;BME280_pressure;Samples;Min_cycle;Max_cycle;Signal;HPM_P1;HPM_P2
2022/05/25 00:01:00;;;;;;;0.80;0.80;;;;;;;23.07;40.48;100864.66;5047321;28;20028;-51
2022/05/25 00:03:27;;;;;;;1.73;1.45;;;;;;;23.05;41.20;100862.91;5075757;28;20503;-46
2022/05/25 00:05:54;;;;;;;0.95;0.95;;;;;;;23.04;41.21;100863.78;5065183;28;20131;-51
2022/05/25 00:08:19;;;;;;;5.50;1.40;;;;;;;23.03;41.79;100864.66;5060001;28;20024;-44
2022/05/25 00:10:45;;;;;;;1.65;0.98;;;;;;;23.01;41.48;100866.41;5052021;28;20056;-45
2022/05/25 00:13:10;;;;;;;1.00;1.00;;;;;;;23.03;41.58;100869.91;5057268;28;20032;-44
2022/05/25 00:15:38;;;;;;;1.17;0.98;;;;;;;23.04;41.27;100876.91;5056351;28;20032;-46
2022/05/25 00:18:04;;;;;;;2.53;1.30;;;;;;;23.04;41.23;100887.41;5078230;28;20076;-49
2022/05/25 00:20:29;;;;;;;1.13;0.95;;;;;;;23.03;41.83;100879.53;5074192;28;20114;-48
2022/05/25 00:22:58;;;;;;;3.20;1.45;;;;;;;23.03;41.67;100885.66;5055392;28;20068;-44
2022/05/25 00:25:29;;;;;;;0.98;0.98;;;;;;;23.04;41.87;100887.41;5072619;28;20036;-45
2022/05/25 00:27:56;;;;;;;3.35;0.98;;;;;;;23.03;41.42;100890.91;5067215;28;20036;-49
2022/05/25 00:30:24;;;;;;;1.13;1.13;;;;;;;23.04;41.36;100897.94;5057555;28;20097;-46
2022/05/25 00:32:49;;;;;;;1.25;1.23;;;;;;;23.04;41.72;100897.03;5066473;28;20063;-45
2022/05/25 00:35:17;;;;;;;1.05;1.05;;;;;;;23.03;41.48;100901.41;5092892;28;20067;-43
2022/05/25 00:37:43;;;;;;;3.65;1.20;;;;;;;23.04;41.19;100897.94;5041875;28;20033;-45
2022/05/25 00:40:12;;;;;;;1.70;1.15;;;;;;;23.04;41.60;100903.19;5091013;28;20031;-51
2022/05/25 00:42:37;;;;;;;1.88;1.60;;;;;;;23.04;41.34;100913.69;5082408;28;20477;-46
2022/05/25 00:45:05;;;;;;;1.13;1.13;;;;;;;23.03;41.51;100901.41;5065522;28;20032;-50
2022/05/25 00:47:35;;;;;;;1.42;1.20;;;;;;;23.03;41.53;100905.78;5069813;28;20028;-49
2022/05/25 00:50:01;;;;;;;1.08;1.08;;;;;;;23.01;41.39;100903.16;5054693;28;20097;-48
2022/05/25 00:52:27;;;;;;;1.42;0.90;;;;;;;23.03;41.26;100911.94;5066627;28;20492;-45
2022/05/25 00:55:05;;;;;;;0.68;0.68;;;;;;;23.03;41.41;100911.94;5072141;28;20024;-45
2022/05/25 00:57:37;;;;;;;1.77;1.30;;;;;;;23.02;41.42;100918.06;5048769;28;20027;-48
2022/05/25 01:00:19;;;;;;;1.33;0.95;;;;;;;22.99;41.63;100904.91;5046732;28;20044;-52
2022/05/25 01:02:53;;;;;;;0.70;0.70;;;;;;;23.03;41.78;100911.94;5065564;28;20115;-53
2022/05/25 01:05:28;;;;;;;0.93;0.93;;;;;;;23.03;41.50;100914.56;5069396;28;20028;-46
2022/05/25 01:08:27;;;;;;;3.13;1.17;;;;;;;23.04;41.50;100912.78;5055128;28;20563;-47
2022/05/25 01:11:18;;;;;;;1.05;0.90;;;;;;;23.03;41.52;100911.94;5066794;28;20365;-45
2022/05/25 01:14:05;;;;;;;1.23;1.13;;;;;;;23.01;41.34;100918.94;5051982;28;20039;-48
2022/05/25 01:16:40;;;;;;;0.73;0.65;;;;;;;23.03;41.15;100919.81;5087241;28;20028;-47
2022/05/25 01:19:42;;;;;;;1.10;1.00;;;;;;;23.03;41.41;100922.44;5061939;28;20313;-49
2022/05/25 01:22:42;;;;;;;2.45;1.25;;;;;;;23.03;41.77;100926.78;5069082;28;20027;-48
2022/05/25 01:25:39;;;;;;;2.70;0.90;;;;;;;23.05;41.32;100928.56;5058589;28;20052;-47
2022/05/25 01:28:47;;;;;;;1.52;1.00;;;;;;;23.05;41.21;100931.19;5050324;28;20479;-49
2022/05/25 01:31:20;;;;;;;0.80;0.80;;;;;;;23.04;41.05;100928.56;5089084;28;20035;-46
2022/05/25 01:34:10;;;;;;;0.93;0.90;;;;;;;23.04;41.20;100939.06;5044446;28;20385;-47
2022/05/25 01:36:56;;;;;;;1.17;1.08;;;;;;;23.04;41.52;100934.69;5027682;28;20097;-53
2022/05/25 01:39:27;;;;;;;0.88;0.88;;;;;;;22.94;41.91;100927.66;5065360;28;20024;-49
2022/05/25 01:42:05;;;;;;;0.95;0.93;;;;;;;23.03;41.70;100942.56;5052008;28;20020;-54
2022/05/25 01:44:36;;;;;;;1.10;1.10;;;;;;;23.03;41.63;100948.69;5084489;28;20028;-46
2022/05/25 01:47:06;;;;;;;0.90;0.88;;;;;;;23.04;41.58;100949.56;5067922;28;20031;-50
2022/05/25 01:49:36;;;;;;;1.17;1.08;;;;;;;23.03;41.45;100948.69;5048792;28;20454;-47
2022/05/25 01:52:04;;;;;;;1.40;1.30;;;;;;;23.03;41.67;100948.69;5047375;28;20055;-50
2022/05/25 01:54:34;;;;;;;0.75;0.75;;;;;;;23.02;41.72;100936.44;5046201;28;20456;-49
2022/05/25 01:57:03;;;;;;;1.88;1.05;;;;;;;23.04;41.02;100944.31;5064578;28;20043;-47
2022/05/25 01:59:28;;;;;;;0.95;0.95;;;;;;;23.04;41.01;100947.84;5079146;28;20028;-48
2022/05/25 02:04:45;;;;;;;2.75;0.90;;;;;;;23.03;41.62;100943.44;5068333;28;20073;-47
2022/05/25 02:07:43;;;;;;;1.08;1.08;;;;;;;23.03;41.04;100943.44;5046611;28;20461;-47
2022/05/25 02:10:25;;;;;;;1.65;1.02;;;;;;;23.03;41.23;100948.69;5034490;28;20043;-48
2022/05/25 02:13:35;;;;;;;0.80;0.80;;;;;;;23.03;41.29;100959.22;5057146;28;20071;-51
2022/05/25 02:16:19;;;;;;;1.23;0.90;;;;;;;22.99;41.16;100935.53;5033483;28;20047;-46
2022/05/25 02:18:59;;;;;;;0.70;0.70;;;;;;;23.03;41.15;100940.81;5088600;28;20122;-47
2022/05/25 02:21:31;;;;;;;0.80;0.80;;;;;;;23.03;41.46;100950.44;5081590;28;20039;-46
2022/05/25 02:24:09;;;;;;;1.20;0.77;;;;;;;22.97;41.68;100938.19;5063827;28;20035;-44
2022/05/25 02:26:58;;;;;;;0.70;0.70;;;;;;;23.02;41.98;100941.69;5091006;28;20032;-49
2022/05/25 02:29:39;;;;;;;2.47;1.33;;;;;;;23.01;41.41;100945.19;5063696;28;20123;-49
2022/05/25 02:32:25;;;;;;;0.70;0.70;;;;;;;23.02;41.27;100946.94;5062339;28;20393;-49
2022/05/25 02:34:52;;;;;;;0.90;0.90;;;;;;;23.01;40.97;100955.69;5068159;28;20032;-44
2022/05/25 02:37:20;;;;;;;0.88;0.80;;;;;;;23.03;41.16;100947.81;5054520;28;20052;-50
2022/05/25 02:39:46;;;;;;;1.05;0.80;;;;;;;23.01;41.05;100955.69;5064481;28;20546;-45
2022/05/25 02:42:16;;;;;;;0.88;0.88;;;;;;;23.01;41.54;100950.44;5060623;28;20032;-47
2022/05/25 02:44:42;;;;;;;0.82;0.80;;;;;;;23.03;41.17;100953.97;5064067;28;20043;-49
2022/05/25 02:47:10;;;;;;;0.75;0.75;;;;;;;23.03;41.16;100953.06;5058984;28;20028;-50
2022/05/25 02:49:36;;;;;;;1.25;1.15;;;;;;;23.03;41.65;100953.06;5051928;28;20119;-45
2022/05/25 02:52:03;;;;;;;0.90;0.90;;;;;;;23.03;40.82;100948.69;5065221;28;20040;-44
2022/05/25 02:54:28;;;;;;;0.90;0.90;;;;;;;22.99;41.22;100946.94;5057103;28;20476;-48
2022/05/25 02:56:54;;;;;;;0.80;0.80;;;;;;;23.04;41.51;100949.56;5052268;28;20090;-51
2022/05/25 02:59:19;;;;;;;0.98;0.93;;;;;;;23.03;41.14;100943.44;5046864;28;20124;-49
2022/05/25 03:01:44;;;;;;;0.85;0.70;;;;;;;23.01;41.35;100950.44;5054906;28;20032;-52
2022/05/25 03:04:10;;;;;;;0.70;0.70;;;;;;;23.01;41.28;100942.56;5056244;28;20031;-49
2022/05/25 03:06:38;;;;;;;1.00;1.00;;;;;;;23.01;40.99;100950.44;5065063;28;20177;-51
2022/05/25 03:09:04;;;;;;;0.80;0.80;;;;;;;23.02;41.32;100949.56;5073987;28;20038;-51
2022/05/25 03:11:29;;;;;;;1.00;1.00;;;;;;;23.03;40.99;100948.69;5049934;28;20032;-47
2022/05/25 03:13:59;;;;;;;1.80;0.68;;;;;;;23.02;41.34;100952.19;5078552;28;20028;-53
2022/05/25 03:16:25;;;;;;;0.93;0.93;;;;;;;22.98;41.41;100942.56;5085021;28;20043;-49
2022/05/25 03:18:53;;;;;;;0.95;0.88;;;;;;;23.02;41.14;100962.72;5063239;28;20215;-44
2022/05/25 03:21:19;;;;;;;1.60;1.50;;;;;;;23.03;41.39;100959.22;5067086;28;20157;-48
2022/05/25 03:23:45;;;;;;;0.95;0.95;;;;;;;23.00;41.10;100964.47;5073442;28;20532;-49
2022/05/25 03:26:10;;;;;;;1.60;1.50;;;;;;;23.03;41.50;100974.97;5069493;28;20108;-50
2022/05/25 03:28:36;;;;;;;0.80;0.73;;;;;;;23.02;41.29;100973.22;5060285;28;20040;-51
2022/05/25 03:31:04;;;;;;;1.48;1.17;;;;;;;23.02;41.11;100978.47;5065321;28;20114;-50
2022/05/25 03:33:32;;;;;;;1.13;1.05;;;;;;;23.03;41.09;100985.47;5047407;28;20028;-46
2022/05/25 03:36:02;;;;;;;0.95;0.70;;;;;;;23.01;40.94;100981.97;5052962;28;20040;-49
2022/05/25 03:38:28;;;;;;;0.98;0.98;;;;;;;23.03;41.42;100990.72;5073480;28;20115;-49
2022/05/25 03:40:55;;;;;;;1.05;0.95;;;;;;;23.03;41.64;100988.09;5063920;28;20108;-49
2022/05/25 03:43:20;;;;;;;1.05;0.95;;;;;;;23.02;41.45;100988.97;4924779;22;20044;-54
2022/05/25 03:45:46;;;;;;;1.35;1.05;;;;;;;23.02;41.26;100994.22;5053912;28;20404;-58
2022/05/25 03:48:12;;;;;;;0.88;0.68;;;;;;;23.01;41.48;100992.47;5055827;28;20032;-52
2022/05/25 03:50:39;;;;;;;0.80;0.80;;;;;;;23.01;41.53;100986.34;5049658;28;20044;-56
2022/05/25 03:53:06;;;;;;;0.80;0.80;;;;;;;23.02;41.36;100994.22;5028670;28;20462;-54
2022/05/25 03:55:34;;;;;;;0.80;0.80;;;;;;;23.02;41.26;100999.47;5051031;28;20029;-54
2022/05/25 03:58:02;;;;;;;0.80;0.80;;;;;;;23.02;41.10;100999.47;5038872;28;20477;-54
2022/05/25 04:00:28;;;;;;;0.90;0.90;;;;;;;23.04;41.28;101007.34;5028957;28;20078;-52
2022/05/25 04:02:56;;;;;;;0.60;0.60;;;;;;;23.04;41.30;101002.09;5069364;28;20037;-56
2022/05/25 04:05:21;;;;;;;1.00;1.00;;;;;;;23.02;41.53;100999.47;5047400;28;20145;-56
2022/05/25 04:07:47;;;;;;;2.47;0.98;;;;;;;23.03;40.91;101006.50;5053308;28;20452;-55
2022/05/25 04:10:17;;;;;;;1.92;1.05;;;;;;;22.96;41.32;100994.22;5030907;28;20032;-57
2022/05/25 04:12:43;;;;;;;0.82;0.82;;;;;;;23.05;41.45;101009.09;5031654;28;20025;-54
2022/05/25 04:15:11;;;;;;;0.75;0.75;;;;;;;23.06;41.32;101005.59;5042914;28;20458;-57
2022/05/25 04:17:36;;;;;;;0.85;0.85;;;;;;;23.08;41.34;101011.75;5067068;28;20085;-54
2022/05/25 04:20:03;;;;;;;0.60;0.60;;;;;;;23.04;41.34;101002.09;5056365;28;20123;-54
2022/05/25 04:22:29;;;;;;;0.82;0.82;;;;;;;23.07;40.96;101017.88;5049221;28;20036;-57
2022/05/25 04:24:55;;;;;;;0.90;0.90;;;;;;;23.09;41.05;101015.25;5064333;28;20385;-54
2022/05/25 04:27:23;;;;;;;1.58;1.25;;;;;;;23.07;41.30;101011.75;5042425;28;20036;-55
2022/05/25 04:29:48;;;;;;;1.10;0.93;;;;;;;23.08;41.30;101013.50;5037911;28;20045;-52
2022/05/25 04:32:14;;;;;;;1.33;1.23;;;;;;;23.09;41.26;101016.13;5036103;28;20028;-54
2022/05/25 04:34:39;;;;;;;0.90;0.90;;;;;;;23.09;40.93;101016.13;5035726;28;20098;-56
2022/05/25 04:39:48;;;;;;;0.90;0.90;;;;;;;23.10;41.14;101017.03;5057075;28;20035;-56
2022/05/25 04:42:16;;;;;;;2.15;0.95;;;;;;;23.12;41.16;101020.53;5049387;28;20170;-59
2022/05/25 04:44:44;;;;;;;0.95;0.95;;;;;;;23.11;41.48;101024.88;5059177;28;20036;-55
2022/05/25 04:47:10;;;;;;;1.17;0.88;;;;;;;23.09;41.45;101016.13;5062524;28;20463;-52
2022/05/25 04:49:35;;;;;;;0.63;0.63;;;;;;;23.12;41.13;101025.78;5067114;28;20043;-55
2022/05/25 04:52:02;;;;;;;0.65;0.65;;;;;;;23.12;40.94;101031.03;5035697;28;20426;-57
2022/05/25 04:54:29;;;;;;;0.80;0.70;;;;;;;23.12;40.91;101020.53;5036086;28;20028;-55
2022/05/25 04:59:39;;;;;;;1.20;1.10;;;;;;;23.12;41.17;101025.78;5050659;28;20548;-57
2022/05/25 05:02:05;;;;;;;0.80;0.80;;;;;;;23.14;40.81;101034.53;5065545;28;20029;-54
2022/05/25 05:04:33;;;;;;;0.90;0.90;;;;;;;23.12;41.17;101031.03;5072285;28;20036;-56
2022/05/25 05:06:58;;;;;;;1.08;1.08;;;;;;;23.12;41.15;101037.16;5032576;28;20045;-59
2022/05/25 05:09:23;;;;;;;0.73;0.73;;;;;;;23.15;41.31;101041.56;5045211;28;20033;-60
2022/05/25 05:11:49;;;;;;;0.95;0.95;;;;;;;23.16;40.99;101038.06;5051040;28;20041;-56
2022/05/25 05:14:14;;;;;;;1.08;1.02;;;;;;;23.16;41.39;101030.19;5051618;28;20068;-55
2022/05/25 05:16:40;;;;;;;0.80;0.80;;;;;;;23.17;40.96;101039.81;5043257;28;20171;-56
2022/05/25 05:19:05;;;;;;;0.80;0.80;;;;;;;23.16;40.95;101043.31;5054977;28;20469;-51
2022/05/25 05:21:31;;;;;;;1.08;0.98;;;;;;;23.16;41.26;101043.31;5071738;28;20307;-59
2022/05/25 05:23:56;;;;;;;1.02;0.98;;;;;;;23.15;40.92;101036.31;5046100;28;20086;-60
2022/05/25 05:26:21;;;;;;;0.70;0.70;;;;;;;23.15;41.63;101044.19;5051161;28;20051;-57
2022/05/25 05:28:49;;;;;;;0.82;0.82;;;;;;;23.15;41.34;101044.19;5054803;28;20074;-59
2022/05/25 05:31:15;;;;;;;0.93;0.90;;;;;;;23.16;41.03;101043.31;5053251;28;20407;-55
2022/05/25 05:33:40;;;;;;;0.82;0.82;;;;;;;23.17;40.82;101050.31;5039724;28;20029;-55
2022/05/25 05:36:14;;;;;;;3.25;0.70;;;;;;;23.16;41.11;101053.81;5054583;28;20028;-55
2022/05/25 05:38:45;;;;;;;0.90;0.90;;;;;;;23.16;41.03;101053.81;5047439;28;20045;-52
2022/05/25 05:41:12;;;;;;;2.25;1.02;;;;;;;23.11;41.30;101034.53;5033928;28;20285;-56
2022/05/25 05:43:38;;;;;;;0.88;0.88;;;;;;;23.18;41.32;101052.06;5050134;28;20469;-54
2022/05/25 05:46:03;;;;;;;1.08;0.98;;;;;;;23.18;40.96;101057.31;5047968;28;20033;-56
2022/05/25 05:48:32;;;;;;;1.00;0.68;;;;;;;23.14;41.10;101051.16;5054986;28;20122;-60
2022/05/25 05:50:58;;;;;;;1.45;1.23;;;;;;;23.19;41.00;101059.09;5036742;28;20452;-57
2022/05/25 05:53:26;;;;;;;0.98;0.98;;;;;;;23.19;41.25;101059.09;5054117;28;20028;-55
2022/05/25 05:55:53;;;;;;;0.80;0.80;;;;;;;23.19;41.28;101059.09;5037750;28;20040;-58
2022/05/25 05:58:21;;;;;;;0.80;0.68;;;;;;;23.18;41.60;101052.06;5054460;28;20116;-57
2022/05/25 06:00:49;;;;;;;0.90;0.90;;;;;;;23.17;40.89;101055.56;5035996;28;20042;-56
2022/05/25 06:03:15;;;;;;;0.82;0.82;;;;;;;23.18;41.14;101062.59;5017074;28;20029;-57
2022/05/25 06:05:41;;;;;;;0.75;0.75;;;;;;;23.20;41.48;101061.69;5038090;28;20450;-54
2022/05/25 06:08:15;;;;;;;0.88;0.88;;;;;;;23.19;40.90;101059.09;5051707;28;20571;-56
2022/05/25 06:10:42;;;;;;;1.20;1.00;;;;;;;23.20;41.14;101066.94;5052018;28;20033;-57
2022/05/25 06:13:07;;;;;;;1.70;1.52;;;;;;;23.19;41.32;101064.34;5026094;28;20553;-58
2022/05/25 06:21:05;;;;;;;0.60;0.60;;;;;;;23.12;40.95;101052.06;5055198;28;20040;-60
2022/05/25 06:23:30;;;;;;;0.82;0.82;;;;;;;23.13;41.07;101053.81;5044481;28;20029;-56
2022/05/25 06:25:56;;;;;;;1.20;1.10;;;;;;;23.20;41.43;101066.94;5062260;28;20033;-53
2022/05/25 06:28:21;;;;;;;2.97;0.75;;;;;;;23.19;40.94;101069.59;5051495;28;20086;-52
2022/05/25 06:30:46;;;;;;;1.10;0.77;;;;;;;23.19;40.90;101069.59;5049101;28;20072;-55
2022/05/25 06:33:12;;;;;;;0.70;0.70;;;;;;;23.22;40.72;101080.13;5051618;28;20039;-55
2022/05/25 06:35:37;;;;;;;3.65;1.10;;;;;;;23.21;41.42;101078.34;5053543;28;20115;-54
2022/05/25 06:38:03;;;;;;;0.93;0.93;;;;;;;23.21;41.49;101078.34;5051161;28;20039;-53
2022/05/25 06:40:29;;;;;;;0.65;0.65;;;;;;;23.19;40.77;101074.84;5051256;28;20560;-57
2022/05/25 06:42:54;;;;;;;0.82;0.63;;;;;;;23.20;40.84;101076.59;5045513;28;20268;-57
2022/05/25 06:45:19;;;;;;;1.30;0.77;;;;;;;23.20;41.01;101081.84;5035515;28;20033;-53
2022/05/25 06:47:45;;;;;;;0.68;0.68;;;;;;;23.21;40.95;101081.00;5030538;28;20071;-54
2022/05/25 06:50:11;;;;;;;0.57;0.57;;;;;;;23.22;40.86;101080.13;5064158;28;20060;-57
2022/05/25 06:52:36;;;;;;;0.77;0.77;;;;;;;23.17;40.68;101076.59;5044466;28;20045;-53
2022/05/25 06:55:02;;;;;;;0.85;0.85;;;;;;;23.22;40.82;101080.13;5046393;28;20469;-54
2022/05/25 06:57:27;;;;;;;0.70;0.70;;;;;;;23.20;41.31;101082.72;5053037;28;20082;-56
2022/05/25 06:59:56;;;;;;;2.05;1.00;;;;;;;23.19;41.04;101078.34;5065045;28;20036;-56
2022/05/25 07:02:22;;;;;;;0.70;0.70;;;;;;;23.21;41.15;101078.34;5034239;28;20493;-56
2022/05/25 07:04:48;;;;;;;0.70;0.63;;;;;;;23.22;41.44;101079.22;5042515;28;20044;-59
2022/05/25 07:07:13;;;;;;;1.38;0.68;;;;;;;23.22;41.21;101084.47;5029710;28;20295;-55
2022/05/25 07:09:39;;;;;;;0.70;0.70;;;;;;;23.22;41.72;101085.38;5053466;28;20021;-55
2022/05/25 07:12:06;;;;;;;0.93;0.80;;;;;;;23.09;41.30;101062.56;5030093;28;20025;-57
2022/05/25 07:14:32;;;;;;;0.65;0.57;;;;;;;23.23;40.99;101087.13;5033955;28;20123;-58
2022/05/25 07:17:02;;;;;;;0.80;0.80;;;;;;;23.21;41.56;101086.25;5068707;28;20445;-52
2022/05/25 07:19:27;;;;;;;0.70;0.70;;;;;;;23.23;41.67;101092.38;5037350;28;20128;-49
2022/05/25 07:21:53;;;;;;;0.98;0.98;;;;;;;23.25;41.02;101089.78;5049816;28;20044;-53
2022/05/25 07:24:21;;;;;;;0.75;0.68;;;;;;;23.25;41.46;101090.66;5056746;28;20385;-55
2022/05/25 07:26:46;;;;;;;0.80;0.80;;;;;;;23.17;41.45;101081.84;5053943;28;20039;-52
2022/05/25 07:29:15;;;;;;;0.75;0.70;;;;;;;23.26;41.22;101097.69;5030524;28;20033;-56
2022/05/25 07:31:48;;;;;;;2.70;1.08;;;;;;;23.26;41.56;101100.31;5046318;28;20025;-59
2022/05/25 07:34:28;;;;;;;0.80;0.80;;;;;;;23.26;41.80;101092.44;5032956;28;20048;-56
2022/05/25 07:37:02;;;;;;;0.70;0.70;;;;;;;23.26;41.23;101102.03;5034891;28;20119;-54
2022/05/25 07:39:30;;;;;;;1.42;0.63;;;;;;;23.22;41.32;101103.75;5038955;28;20112;-52
2022/05/25 07:41:57;;;;;;;1.55;0.77;;;;;;;23.20;41.79;101102.88;5039483;28;20040;-55
2022/05/25 07:44:49;;;;;;;1.58;1.10;;;;;;;23.25;41.63;101116.94;5050495;28;20037;-54
2022/05/25 07:47:14;;;;;;;0.65;0.65;;;;;;;23.24;41.72;101104.69;5045431;28;20086;-59
2022/05/25 07:49:40;;;;;;;1.95;0.98;;;;;;;23.14;41.36;101087.94;5049807;28;20525;-53
2022/05/25 07:52:05;;;;;;;1.08;0.93;;;;;;;23.25;41.29;101109.06;5045215;28;20052;-52
2022/05/25 07:54:31;;;;;;;0.95;0.63;;;;;;;23.19;41.40;101101.97;5072654;28;20039;-56
2022/05/25 07:56:59;;;;;;;1.13;1.02;;;;;;;23.26;41.18;101108.19;5055581;28;20028;-58
2022/05/25 07:59:24;;;;;;;0.80;0.80;;;;;;;23.24;41.48;101104.69;5041084;28;20029;-56
2022/05/25 08:07:24;;;;;;;0.90;0.90;;;;;;;23.25;41.23;101080.16;5053885;28;20042;-59
2022/05/25 08:09:54;;;;;;;1.00;1.00;;;;;;;23.27;41.49;101094.19;5067122;28;20108;-57
2022/05/25 08:12:20;;;;;;;5.97;1.08;;;;;;;23.26;41.65;101087.16;5056013;28;20546;-56
2022/05/25 08:14:45;;;;;;;0.68;0.68;;;;;;;23.28;41.36;101088.06;5039777;28;20021;-60
2022/05/25 08:17:11;;;;;;;1.35;0.93;;;;;;;23.18;41.16;101070.47;5055044;28;20033;-59
2022/05/25 08:19:38;;;;;;;0.70;0.70;;;;;;;23.27;41.25;101088.91;5060339;28;20140;-55
2022/05/25 08:22:04;;;;;;;0.70;0.70;;;;;;;23.26;41.13;101092.44;5035282;28;20440;-52
2022/05/25 08:24:30;;;;;;;0.90;0.90;;;;;;;23.28;41.09;101088.06;5067569;28;20054;-57
2022/05/25 08:26:55;;;;;;;0.70;0.70;;;;;;;23.26;41.24;101092.44;5055520;28;20029;-59
2022/05/25 08:29:25;;;;;;;0.70;0.70;;;;;;;23.28;41.64;101095.03;5033209;28;20082;-56
2022/05/25 08:31:55;;;;;;;0.80;0.80;;;;;;;23.27;40.90;101094.19;5054719;28;20401;-52
2022/05/25 08:34:25;;;;;;;0.90;0.90;;;;;;;23.27;40.81;101088.91;5039106;28;20079;-57
2022/05/25 08:36:50;;;;;;;0.70;0.70;;;;;;;23.28;40.99;101093.31;5050039;28;20029;-55
2022/05/25 08:39:16;;;;;;;1.95;0.70;;;;;;;23.26;41.21;101091.53;5036029;28;20448;-57
2022/05/25 08:41:43;;;;;;;1.10;0.85;;;;;;;23.28;40.97;101095.03;5052135;28;20090;-53
2022/05/25 08:44:11;;;;;;;1.05;0.95;;;;;;;23.26;41.12;101097.69;5021538;28;20486;-55
2022/05/25 08:46:39;;;;;;;2.50;2.30;;;;;;;23.27;41.46;101094.19;5035181;28;20028;-57
2022/05/25 08:49:30;;;;;;;7.43;4.25;;;;;;;23.28;41.32;101098.56;5050555;28;20036;-55
2022/05/25 08:51:57;;;;;;;17.10;5.00;;;;;;;23.27;41.11;101099.44;5021049;28;20067;-52
2022/05/25 08:54:25;;;;;;;14.73;5.88;;;;;;;23.29;41.73;101092.44;5050241;28;20355;-59
2022/05/25 08:57:00;;;;;;;25.83;6.22;;;;;;;23.28;41.48;101093.31;5043626;28;20360;-53
2022/05/25 08:59:38;;;;;;;10.93;5.30;;;;;;;23.29;41.35;101095.06;5067536;28;20029;-54
2022/05/25 09:02:34;;;;;;;21.70;6.20;;;;;;;23.31;41.51;101089.78;5061940;28;20032;-56
2022/05/25 09:05:07;;;;;;;12.82;5.28;;;;;;;23.30;41.54;101091.56;5067046;28;20086;-56
2022/05/25 09:07:37;;;;;;;10.05;4.82;;;;;;;23.30;41.63;101091.56;5029157;28;20458;-56
2022/05/25 09:10:03;;;;;;;9.93;5.05;;;;;;;23.30;41.57;101094.19;5062574;28;20033;-57
2022/05/25 09:12:39;;;;;;;11.82;5.15;;;;;;;23.33;41.33;101094.19;5048552;28;20037;-60
2022/05/25 09:15:24;;;;;;;9.75;5.22;;;;;;;23.33;41.49;101099.47;5030013;28;20032;-55
2022/05/25 09:18:02;;;;;;;14.60;5.53;;;;;;;23.31;41.67;101082.81;5022766;28;20036;-52
2022/05/25 09:20:35;;;;;;;14.35;4.95;;;;;;;23.32;42.12;101095.06;5057517;28;20052;-57
2022/05/25 09:23:02;;;;;;;7.65;4.22;;;;;;;23.32;41.58;101092.44;5037886;28;20070;-58
2022/05/25 09:25:29;;;;;;;7.55;4.50;;;;;;;23.32;41.61;101092.44;5047410;28;20037;-58
2022/05/25 09:28:00;;;;;;;11.43;4.18;;;;;;;23.33;42.13;101091.56;5036173;28;20039;-56
2022/05/25 09:30:30;;;;;;;11.27;3.33;;;;;;;23.33;42.18;101088.94;5034142;28;20079;-53
2022/05/25 09:33:03;;;;;;;14.45;5.00;;;;;;;23.26;42.04;101076.66;5060722;28;20445;-57
2022/05/25 09:35:40;;;;;;;5.63;3.70;;;;;;;23.33;41.56;101083.69;5045754;28;20020;-59
2022/05/25 09:38:16;;;;;;;7.80;3.90;;;;;;;23.33;41.92;101088.94;5050657;28;20067;-58
2022/05/25 09:40:50;;;;;;;20.50;3.92;;;;;;;23.26;41.40;101079.28;5051450;28;20115;-55
2022/05/25 09:43:21;;;;;;;7.80;4.57;;;;;;;23.36;42.03;101100.34;5052677;28;20063;-55
2022/05/25 09:45:49;;;;;;;10.50;4.53;;;;;;;23.36;42.05;101100.34;5051213;28;20134;-53
2022/05/25 09:48:15;;;;;;;9.73;5.00;;;;;;;23.36;41.93;101095.09;5043178;28;20036;-57
2022/05/25 09:50:45;;;;;;;5.85;3.63;;;;;;;23.33;41.62;101099.47;5060638;28;20044;-57
2022/05/25 09:53:16;;;;;;;7.43;4.63;;;;;;;23.34;41.85;101106.47;5027988;28;20021;-57
2022/05/25 09:55:46;;;;;;;11.27;3.83;;;;;;;23.34;41.69;101101.22;5049882;28;20028;-56
2022/05/25 09:58:22;;;;;;;8.07;3.67;;;;;;;23.36;41.96;101108.22;5048214;28;20039;-58
2022/05/25 10:00:57;;;;;;;5.50;3.55;;;;;;;23.38;41.93;101106.47;5069167;28;20036;-56
2022/05/25 10:03:36;;;;;;;4.90;3.28;;;;;;;23.38;41.77;101101.22;5030292;28;20497;-57
2022/05/25 10:06:30;;;;;;;6.97;3.33;;;;;;;23.39;41.62;101089.84;5019698;28;20039;-56
2022/05/25 10:09:27;;;;;;;16.98;4.45;;;;;;;23.39;41.50;101108.22;5065276;28;20086;-56
2022/05/25 10:11:55;;;;;;;7.32;3.60;;;;;;;23.39;41.23;101102.97;5033486;28;20488;-56
2022/05/25 10:14:35;;;;;;;7.53;4.18;;;;;;;23.40;41.64;101099.47;5042183;28;20040;-56
2022/05/25 10:17:10;;;;;;;4.95;3.55;;;;;;;23.40;41.68;101088.97;5046825;28;20059;-53
2022/05/25 10:19:51;;;;;;;4.32;2.88;;;;;;;23.38;41.65;101090.72;5050094;28;20028;-60
2022/05/25 10:22:41;;;;;;;2.72;2.50;;;;;;;23.36;41.44;101098.59;5031673;28;20021;-57
2022/05/25 10:25:15;;;;;;;6.50;3.72;;;;;;;23.37;41.87;101088.94;5048967;28;20358;-56
2022/05/25 10:27:43;;;;;;;7.35;3.05;;;;;;;23.39;41.75;101092.47;5062634;28;20447;-55
2022/05/25 10:39:30;;;;;;;4.85;2.60;;;;;;;23.43;41.46;101086.34;5058704;28;20155;-56
2022/05/25 10:42:04;;;;;;;2.55;2.35;;;;;;;23.46;41.77;101088.97;5060616;28;20477;-55
2022/05/25 10:44:34;;;;;;;10.67;3.90;;;;;;;23.41;41.47;101085.47;5044314;28;20039;-56
2022/05/25 10:47:00;;;;;;;5.15;3.00;;;;;;;23.45;41.31;101087.22;5044761;28;20278;-55
2022/05/25 10:49:38;;;;;;;3.40;2.78;;;;;;;23.46;42.13;101094.22;5043335;28;20070;-54
2022/05/25 10:52:12;;;;;;;4.32;2.20;;;;;;;23.45;41.44;101081.97;5037996;28;20036;-52
2022/05/25 10:54:46;;;;;;;6.68;2.63;;;;;;;23.47;41.54;101094.25;5038119;28;20033;-54
2022/05/25 10:57:44;;;;;;;10.35;2.45;;;;;;;23.48;41.42;101092.50;5041313;28;20087;-59
2022/05/25 11:00:16;;;;;;;7.43;2.97;;;;;;;23.48;41.64;101082.88;5057298;28;20045;-60
2022/05/25 11:03:19;;;;;;;3.33;2.70;;;;;;;23.48;41.93;101088.13;5032512;28;20029;-60
2022/05/25 11:05:55;;;;;;;6.90;3.55;;;;;;;23.48;42.00;101088.13;5069980;28;20031;-62
2022/05/25 11:08:46;;;;;;;5.60;2.90;;;;;;;23.48;41.86;101092.50;5047631;28;20114;-60
2022/05/25 11:11:33;;;;;;;6.13;2.72;;;;;;;23.49;41.69;101086.34;5071066;28;20017;-60
2022/05/25 11:14:22;;;;;;;5.35;2.65;;;;;;;23.46;41.74;101079.34;5056048;28;20128;-62
2022/05/25 11:16:55;;;;;;;4.28;3.13;;;;;;;23.49;41.93;101092.50;5036786;28;20085;-59
2022/05/25 11:20:00;;;;;;;9.70;2.88;;;;;;;23.52;41.61;101094.25;5036711;28;20033;-60
2022/05/25 11:22:30;;;;;;;6.00;2.80;;;;;;;23.54;41.64;101089.88;5048742;28;20153;-58
2022/05/25 11:25:09;;;;;;;3.90;2.13;;;;;;;23.55;41.82;101096.88;5031330;28;20036;-59
2022/05/25 11:27:51;;;;;;;3.83;1.90;;;;;;;23.53;41.78;101090.75;5072053;28;20037;-57
2022/05/25 11:30:35;;;;;;;9.60;2.70;;;;;;;23.50;41.68;101085.47;5062751;28;20025;-56
2022/05/25 11:33:26;;;;;;;2.97;2.35;;;;;;;23.43;41.94;101067.94;5047879;28;20036;-56
2022/05/25 11:36:37;;;;;;;2.03;1.88;;;;;;;23.55;41.75;101083.75;5050605;28;20032;-59
2022/05/25 11:39:19;;;;;;;3.90;1.80;;;;;;;23.56;41.25;101079.38;5036319;28;20068;-58
2022/05/25 11:41:50;;;;;;;12.20;2.28;;;;;;;23.56;41.29;101082.88;5053115;28;20032;-59
2022/05/25 11:44:27;;;;;;;8.30;3.35;;;;;;;23.56;41.28;101074.97;5049262;28;20472;-57
2022/05/25 11:47:00;;;;;;;4.53;2.53;;;;;;;23.53;41.33;101077.59;5067803;28;20389;-56
2022/05/25 11:49:47;;;;;;;3.67;2.25;;;;;;;23.55;41.58;101082.88;5050370;28;20532;-57
2022/05/25 11:52:38;;;;;;;2.15;1.92;;;;;;;23.56;41.42;101080.25;5051667;28;20434;-57
2022/05/25 11:55:13;;;;;;;3.08;1.75;;;;;;;23.56;41.76;101080.25;5056130;28;20071;-55
2022/05/25 11:58:26;;;;;;;1.63;1.52;;;;;;;23.45;41.73;101067.09;5031167;28;20033;-57
2022/05/25 12:01:33;;;;;;;5.00;2.00;;;;;;;23.50;41.67;101069.72;4990251;28;20039;-59
2022/05/25 12:04:13;;;;;;;2.47;2.03;;;;;;;23.48;41.45;101076.72;4993427;28;20041;-61
2022/05/25 12:07:14;;;;;;;2.10;1.67;;;;;;;23.49;41.56;101073.22;5007811;28;20048;-60
2022/05/25 12:09:54;;;;;;;3.63;2.22;;;;;;;23.51;41.32;101066.22;5011836;28;20045;-58
2022/05/25 12:12:35;;;;;;;5.82;2.13;;;;;;;23.49;41.74;101062.69;5062503;28;20534;-58
2022/05/25 12:15:13;;;;;;;2.97;1.63;;;;;;;23.48;41.30;101060.94;5048898;28;20024;-59